sensor_id;sensor_type;location;lat;lon;timestamp;temperature;humidity
25440;DHT22;13365;52.208;5.488;2022-10-04T00:03:34;18.80;91.60
25440;DHT22;13365;52.208;5.488;2022-10-04T00:06:01;18.70;91.60
25440;DHT22;13365;52.208;5.488;2022-10-04T00:08:41;18.70;91.60
25440;DHT22;13365;52.208;5.488;2022-10-04T00:11:23;18.80;91.60
25440;DHT22;13365;52.208;5.488;2022-10-04T00:13:56;18.80;91.70
25440;DHT22;13365;52.208;5.488;2022-10-04T00:16:39;18.80;91.70
25440;DHT22;13365;52.208;5.488;2022-10-04T00:24:29;18.90;92.00
25440;DHT22;13365;52.208;5.488;2022-10-04T00:27:21;18.90;92.10
25440;DHT22;13365;52.208;5.488;2022-10-04T00:37:54;18.80;92.00
25440;DHT22;13365;52.208;5.488;2022-10-04T00:40:20;18.90;92.10
25440;DHT22;13365;52.208;5.488;2022-10-04T00:43:02;18.90;92.10
25440;DHT22;13365;52.208;5.488;2022-10-04T00:45:44;18.90;92.30
25440;DHT22;13365;52.208;5.488;2022-10-04T00:48:30;18.80;92.50
25440;DHT22;13365;52.208;5.488;2022-10-04T00:51:12;18.70;92.60
25440;DHT22;13365;52.208;5.488;2022-10-04T00:54:17;18.70;92.60
25440;DHT22;13365;52.208;5.488;2022-10-04T00:57:19;18.80;92.80
25440;DHT22;13365;52.208;5.488;2022-10-04T00:59:56;18.70;92.90
25440;DHT22;13365;52.208;5.488;2022-10-04T01:02:30;18.50;92.90
25440;DHT22;13365;52.208;5.488;2022-10-04T01:05:32;18.60;92.90
25440;DHT22;13365;52.208;5.488;2022-10-04T01:08:17;18.70;92.90
25440;DHT22;13365;52.208;5.488;2022-10-04T01:10:55;18.70;92.70
25440;DHT22;13365;52.208;5.488;2022-10-04T01:13:34;18.60;92.70
25440;DHT22;13365;52.208;5.488;2022-10-04T01:18:36;18.70;92.60
25440;DHT22;13365;52.208;5.488;2022-10-04T01:28:54;18.70;92.30
25440;DHT22;13365;52.208;5.488;2022-10-04T01:31:21;18.60;92.20
25440;DHT22;13365;52.208;5.488;2022-10-04T01:33:47;18.50;92.20
25440;DHT22;13365;52.208;5.488;2022-10-04T01:36:13;18.50;92.30
25440;DHT22;13365;52.208;5.488;2022-10-04T01:38:38;18.60;92.30
25440;DHT22;13365;52.208;5.488;2022-10-04T01:41:05;18.50;92.40
25440;DHT22;13365;52.208;5.488;2022-10-04T01:43:36;18.40;92.60
25440;DHT22;13365;52.208;5.488;2022-10-04T01:46:17;18.50;92.70
25440;DHT22;13365;52.208;5.488;2022-10-04T01:48:45;18.40;92.70
25440;DHT22;13365;52.208;5.488;2022-10-04T01:51:18;18.30;92.80
25440;DHT22;13365;52.208;5.488;2022-10-04T01:53:52;18.20;92.80
25440;DHT22;13365;52.208;5.488;2022-10-04T01:56:25;18.30;92.80
25440;DHT22;13365;52.208;5.488;2022-10-04T01:58:57;18.30;92.60
25440;DHT22;13365;52.208;5.488;2022-10-04T02:04:04;18.20;92.50
25440;DHT22;13365;52.208;5.488;2022-10-04T02:06:41;18.20;92.50
25440;DHT22;13365;52.208;5.488;2022-10-04T02:09:34;18.20;92.50
25440;DHT22;13365;52.208;5.488;2022-10-04T02:12:03;18.10;92.30
25440;DHT22;13365;52.208;5.488;2022-10-04T02:14:34;18.10;92.30
25440;DHT22;13365;52.208;5.488;2022-10-04T02:17:02;17.90;92.40
25440;DHT22;13365;52.208;5.488;2022-10-04T02:19:39;17.90;92.50
25440;DHT22;13365;52.208;5.488;2022-10-04T02:22:06;17.90;92.40
25440;DHT22;13365;52.208;5.488;2022-10-04T02:24:36;17.90;92.40
25440;DHT22;13365;52.208;5.488;2022-10-04T02:27:02;17.90;92.40
25440;DHT22;13365;52.208;5.488;2022-10-04T02:29:27;17.90;92.50
25440;DHT22;13365;52.208;5.488;2022-10-04T02:31:53;17.80;92.60
25440;DHT22;13365;52.208;5.488;2022-10-04T02:34:38;17.90;92.60
25440;DHT22;13365;52.208;5.488;2022-10-04T02:37:05;17.90;92.60
25440;DHT22;13365;52.208;5.488;2022-10-04T02:39:56;17.90;93.10
25440;DHT22;13365;52.208;5.488;2022-10-04T02:43:02;17.90;92.60
25440;DHT22;13365;52.208;5.488;2022-10-04T02:48:25;17.90;92.70
25440;DHT22;13365;52.208;5.488;2022-10-04T02:50:52;17.90;92.60
25440;DHT22;13365;52.208;5.488;2022-10-04T02:53:30;18.00;92.50
25440;DHT22;13365;52.208;5.488;2022-10-04T02:55:58;17.90;92.50
25440;DHT22;13365;52.208;5.488;2022-10-04T02:58:25;17.90;92.60
25440;DHT22;13365;52.208;5.488;2022-10-04T03:00:55;17.90;92.50
25440;DHT22;13365;52.208;5.488;2022-10-04T03:03:29;17.70;92.90
25440;DHT22;13365;52.208;5.488;2022-10-04T03:06:05;17.80;92.60
25440;DHT22;13365;52.208;5.488;2022-10-04T03:08:53;17.80;92.60
25440;DHT22;13365;52.208;5.488;2022-10-04T03:11:22;17.80;92.60
25440;DHT22;13365;52.208;5.488;2022-10-04T03:13:53;17.80;92.70
25440;DHT22;13365;52.208;5.488;2022-10-04T03:16:20;17.70;92.60
25440;DHT22;13365;52.208;5.488;2022-10-04T03:18:47;17.70;92.60
25440;DHT22;13365;52.208;5.488;2022-10-04T03:21:17;17.60;92.60
25440;DHT22;13365;52.208;5.488;2022-10-04T03:23:44;17.60;92.60
25440;DHT22;13365;52.208;5.488;2022-10-04T03:26:31;17.60;92.60
25440;DHT22;13365;52.208;5.488;2022-10-04T03:28:59;17.60;92.40
25440;DHT22;13365;52.208;5.488;2022-10-04T03:31:28;17.50;92.40
25440;DHT22;13365;52.208;5.488;2022-10-04T03:33:55;17.60;92.30
25440;DHT22;13365;52.208;5.488;2022-10-04T03:36:23;17.50;92.70
25440;DHT22;13365;52.208;5.488;2022-10-04T03:38:52;17.40;92.40
25440;DHT22;13365;52.208;5.488;2022-10-04T03:41:18;17.50;92.40
25440;DHT22;13365;52.208;5.488;2022-10-04T03:43:45;17.40;92.30
25440;DHT22;13365;52.208;5.488;2022-10-04T03:46:13;17.40;92.30
25440;DHT22;13365;52.208;5.488;2022-10-04T03:48:43;17.40;92.20
25440;DHT22;13365;52.208;5.488;2022-10-04T03:51:14;17.30;92.00
25440;DHT22;13365;52.208;5.488;2022-10-04T03:53:43;17.30;92.00
25440;DHT22;13365;52.208;5.488;2022-10-04T03:56:19;17.30;92.00
25440;DHT22;13365;52.208;5.488;2022-10-04T03:58:48;17.30;91.90
25440;DHT22;13365;52.208;5.488;2022-10-04T04:01:37;17.30;91.90
25440;DHT22;13365;52.208;5.488;2022-10-04T04:07:10;17.20;91.80
25440;DHT22;13365;52.208;5.488;2022-10-04T04:15:09;17.10;92.00
25440;DHT22;13365;52.208;5.488;2022-10-04T04:17:47;17.00;92.00
25440;DHT22;13365;52.208;5.488;2022-10-04T04:20:38;17.00;92.20
25440;DHT22;13365;52.208;5.488;2022-10-04T04:25:47;16.90;92.40
25440;DHT22;13365;52.208;5.488;2022-10-04T04:28:33;16.90;92.60
25440;DHT22;13365;52.208;5.488;2022-10-04T04:31:23;16.80;92.60
25440;DHT22;13365;52.208;5.488;2022-10-04T04:34:20;16.80;92.60
25440;DHT22;13365;52.208;5.488;2022-10-04T04:36:44;16.60;92.70
25440;DHT22;13365;52.208;5.488;2022-10-04T04:39:21;16.60;92.80
25440;DHT22;13365;52.208;5.488;2022-10-04T04:42:17;16.60;92.90
25440;DHT22;13365;52.208;5.488;2022-10-04T04:47:41;16.60;92.70
25440;DHT22;13365;52.208;5.488;2022-10-04T04:50:17;16.60;92.80
25440;DHT22;13365;52.208;5.488;2022-10-04T04:52:49;16.70;92.70
25440;DHT22;13365;52.208;5.488;2022-10-04T04:55:22;16.70;92.60
25440;DHT22;13365;52.208;5.488;2022-10-04T04:57:50;16.60;92.60
25440;DHT22;13365;52.208;5.488;2022-10-04T05:00:20;16.60;92.60
25440;DHT22;13365;52.208;5.488;2022-10-04T05:02:56;16.60;92.70
25440;DHT22;13365;52.208;5.488;2022-10-04T05:05:24;16.70;93.00
25440;DHT22;13365;52.208;5.488;2022-10-04T05:10:33;16.50;92.70
25440;DHT22;13365;52.208;5.488;2022-10-04T05:13:00;16.50;92.70
25440;DHT22;13365;52.208;5.488;2022-10-04T05:15:34;16.50;92.80
25440;DHT22;13365;52.208;5.488;2022-10-04T05:18:01;16.50;92.80
25440;DHT22;13365;52.208;5.488;2022-10-04T05:20:28;16.50;92.80
25440;DHT22;13365;52.208;5.488;2022-10-04T05:22:56;16.40;92.80
25440;DHT22;13365;52.208;5.488;2022-10-04T05:25:30;16.50;92.70
25440;DHT22;13365;52.208;5.488;2022-10-04T05:27:56;16.50;92.60
25440;DHT22;13365;52.208;5.488;2022-10-04T05:33:07;16.60;92.50
25440;DHT22;13365;52.208;5.488;2022-10-04T05:35:54;16.50;92.50
25440;DHT22;13365;52.208;5.488;2022-10-04T05:43:47;16.50;92.60
25440;DHT22;13365;52.208;5.488;2022-10-04T05:46:21;16.50;92.60
25440;DHT22;13365;52.208;5.488;2022-10-04T05:48:57;16.40;92.80
25440;DHT22;13365;52.208;5.488;2022-10-04T05:51:31;16.30;92.80
25440;DHT22;13365;52.208;5.488;2022-10-04T05:53:59;16.30;92.90
25440;DHT22;13365;52.208;5.488;2022-10-04T06:02:18;16.30;92.90
25440;DHT22;13365;52.208;5.488;2022-10-04T06:07:27;16.20;93.00
25440;DHT22;13365;52.208;5.488;2022-10-04T06:18:53;16.30;93.10
25440;DHT22;13365;52.208;5.488;2022-10-04T06:21:27;16.30;93.00
25440;DHT22;13365;52.208;5.488;2022-10-04T06:23:58;16.20;93.10
25440;DHT22;13365;52.208;5.488;2022-10-04T06:26:43;16.20;93.20
25440;DHT22;13365;52.208;5.488;2022-10-04T06:29:19;16.20;93.10
25440;DHT22;13365;52.208;5.488;2022-10-04T06:45:58;16.00;93.30
25440;DHT22;13365;52.208;5.488;2022-10-04T06:54:44;16.20;93.50
25440;DHT22;13365;52.208;5.488;2022-10-04T06:57:28;16.20;93.70
25440;DHT22;13365;52.208;5.488;2022-10-04T07:03:08;16.30;94.30
25440;DHT22;13365;52.208;5.488;2022-10-04T07:05:47;16.30;94.40
25440;DHT22;13365;52.208;5.488;2022-10-04T07:10:58;16.40;95.20
25440;DHT22;13365;52.208;5.488;2022-10-04T07:18:53;16.40;95.70
25440;DHT22;13365;52.208;5.488;2022-10-04T07:21:21;16.40;95.90
25440;DHT22;13365;52.208;5.488;2022-10-04T07:23:57;16.60;96.10
25440;DHT22;13365;52.208;5.488;2022-10-04T07:26:28;16.70;96.20
25440;DHT22;13365;52.208;5.488;2022-10-04T07:28:57;16.90;96.00
25440;DHT22;13365;52.208;5.488;2022-10-04T07:31:45;16.90;95.90
25440;DHT22;13365;52.208;5.488;2022-10-04T07:34:21;17.10;95.40
25440;DHT22;13365;52.208;5.488;2022-10-04T07:36:49;17.10;95.30
25440;DHT22;13365;52.208;5.488;2022-10-04T07:39:42;17.10;95.40
25440;DHT22;13365;52.208;5.488;2022-10-04T07:42:20;17.30;95.20
25440;DHT22;13365;52.208;5.488;2022-10-04T07:45:09;17.30;95.30
25440;DHT22;13365;52.208;5.488;2022-10-04T07:47:36;17.40;95.30
25440;DHT22;13365;52.208;5.488;2022-10-04T07:50:22;17.40;95.40
25440;DHT22;13365;52.208;5.488;2022-10-04T07:53:03;17.50;95.50
25440;DHT22;13365;52.208;5.488;2022-10-04T07:55:48;17.50;95.50
25440;DHT22;13365;52.208;5.488;2022-10-04T07:58:30;17.40;95.30
25440;DHT22;13365;52.208;5.488;2022-10-04T08:01:21;17.50;95.40
25440;DHT22;13365;52.208;5.488;2022-10-04T08:15:30;17.90;95.00
25440;DHT22;13365;52.208;5.488;2022-10-04T08:18:07;17.90;94.70
25440;DHT22;13365;52.208;5.488;2022-10-04T08:23:39;18.30;93.80
25440;DHT22;13365;52.208;5.488;2022-10-04T08:39:53;18.50;93.90
25440;DHT22;13365;52.208;5.488;2022-10-04T08:59:10;19.50;92.30
25440;DHT22;13365;52.208;5.488;2022-10-04T09:04:38;20.00;91.60
25440;DHT22;13365;52.208;5.488;2022-10-04T09:24:31;20.90;90.80
25440;DHT22;13365;52.208;5.488;2022-10-04T09:30:05;21.20;89.40
25440;DHT22;13365;52.208;5.488;2022-10-04T09:44:33;21.10;89.20
25440;DHT22;13365;52.208;5.488;2022-10-04T09:53:17;21.30;89.80
25440;DHT22;13365;52.208;5.488;2022-10-04T09:59:32;21.60;89.00
25440;DHT22;13365;52.208;5.488;2022-10-04T10:08:07;21.90;87.50
25440;DHT22;13365;52.208;5.488;2022-10-04T10:22:46;21.60;86.80
25440;DHT22;13365;52.208;5.488;2022-10-04T10:34:02;22.10;86.50
25440;DHT22;13365;52.208;5.488;2022-10-04T10:36:47;22.10;85.30
25440;DHT22;13365;52.208;5.488;2022-10-04T10:39:59;22.00;85.10
25440;DHT22;13365;52.208;5.488;2022-10-04T10:42:58;21.90;86.90
25440;DHT22;13365;52.208;5.488;2022-10-04T10:45:41;21.90;86.80
25440;DHT22;13365;52.208;5.488;2022-10-04T10:51:00;22.00;88.00
25440;DHT22;13365;52.208;5.488;2022-10-04T11:02:23;22.80;84.90
25440;DHT22;13365;52.208;5.488;2022-10-04T11:11:02;22.60;84.20
25440;DHT22;13365;52.208;5.488;2022-10-04T11:13:51;22.50;84.10
25440;DHT22;13365;52.208;5.488;2022-10-04T11:19:24;22.50;84.10
25440;DHT22;13365;52.208;5.488;2022-10-04T11:22:50;22.50;84.20
25440;DHT22;13365;52.208;5.488;2022-10-04T11:25:29;22.50;83.80
25440;DHT22;13365;52.208;5.488;2022-10-04T11:36:45;22.70;81.00
25440;DHT22;13365;52.208;5.488;2022-10-04T11:42:37;22.40;80.50
25440;DHT22;13365;52.208;5.488;2022-10-04T11:45:27;22.30;83.00
25440;DHT22;13365;52.208;5.488;2022-10-04T11:53:50;22.30;81.50
25440;DHT22;13365;52.208;5.488;2022-10-04T11:59:23;22.20;81.80
25440;DHT22;13365;52.208;5.488;2022-10-04T12:07:40;22.20;81.40
25440;DHT22;13365;52.208;5.488;2022-10-04T12:10:23;22.40;81.80
25440;DHT22;13365;52.208;5.488;2022-10-04T12:13:18;22.40;80.20
25440;DHT22;13365;52.208;5.488;2022-10-04T12:21:59;22.70;78.90
25440;DHT22;13365;52.208;5.488;2022-10-04T12:24:39;22.60;78.90
25440;DHT22;13365;52.208;5.488;2022-10-04T12:27:26;22.40;79.50
25440;DHT22;13365;52.208;5.488;2022-10-04T12:38:20;21.80;82.90
25440;DHT22;13365;52.208;5.488;2022-10-04T12:43:51;21.80;83.90
25440;DHT22;13365;52.208;5.488;2022-10-04T12:52:21;22.40;83.10
25440;DHT22;13365;52.208;5.488;2022-10-04T12:58:40;22.70;80.50
25440;DHT22;13365;52.208;5.488;2022-10-04T13:01:09;22.60;79.60
25440;DHT22;13365;52.208;5.488;2022-10-04T13:09:18;22.60;78.90
25440;DHT22;13365;52.208;5.488;2022-10-04T13:12:02;22.50;79.70
25440;DHT22;13365;52.208;5.488;2022-10-04T13:14:47;22.60;79.10
25440;DHT22;13365;52.208;5.488;2022-10-04T13:17:49;22.40;78.60
25440;DHT22;13365;52.208;5.488;2022-10-04T13:33:48;22.50;78.40
25440;DHT22;13365;52.208;5.488;2022-10-04T13:36:24;22.30;79.40
25440;DHT22;13365;52.208;5.488;2022-10-04T13:44:28;22.20;79.50
25440;DHT22;13365;52.208;5.488;2022-10-04T13:47:08;22.30;79.10
25440;DHT22;13365;52.208;5.488;2022-10-04T13:53:08;22.20;77.70
25440;DHT22;13365;52.208;5.488;2022-10-04T13:55:40;22.20;78.90
25440;DHT22;13365;52.208;5.488;2022-10-04T14:04:46;22.30;77.80
25440;DHT22;13365;52.208;5.488;2022-10-04T14:26:48;22.50;78.60
25440;DHT22;13365;52.208;5.488;2022-10-04T14:37:41;22.30;79.40
25440;DHT22;13365;52.208;5.488;2022-10-04T14:48:48;23.00;80.80
25440;DHT22;13365;52.208;5.488;2022-10-04T14:51:28;23.50;80.60
25440;DHT22;13365;52.208;5.488;2022-10-04T14:59:53;23.60;78.10
25440;DHT22;13365;52.208;5.488;2022-10-04T15:07:40;23.50;79.20
25440;DHT22;13365;52.208;5.488;2022-10-04T15:10:35;23.70;79.80
25440;DHT22;13365;52.208;5.488;2022-10-04T15:13:08;23.70;79.70
25440;DHT22;13365;52.208;5.488;2022-10-04T15:24:27;23.40;80.10
25440;DHT22;13365;52.208;5.488;2022-10-04T15:27:21;23.50;80.40
25440;DHT22;13365;52.208;5.488;2022-10-04T15:35:33;23.20;81.80
25440;DHT22;13365;52.208;5.488;2022-10-04T15:46:52;23.00;81.70
25440;DHT22;13365;52.208;5.488;2022-10-04T15:49:56;23.00;82.20
25440;DHT22;13365;52.208;5.488;2022-10-04T15:52:48;23.00;82.40
25440;DHT22;13365;52.208;5.488;2022-10-04T15:55:22;23.00;81.70
25440;DHT22;13365;52.208;5.488;2022-10-04T15:58:14;23.00;81.60
25440;DHT22;13365;52.208;5.488;2022-10-04T16:00:45;23.10;81.50
25440;DHT22;13365;52.208;5.488;2022-10-04T16:06:02;23.10;81.90
25440;DHT22;13365;52.208;5.488;2022-10-04T16:21:42;22.90;83.20
25440;DHT22;13365;52.208;5.488;2022-10-04T16:29:35;22.90;82.90
25440;DHT22;13365;52.208;5.488;2022-10-04T16:32:17;23.00;83.20
25440;DHT22;13365;52.208;5.488;2022-10-04T16:35:02;22.80;83.90
25440;DHT22;13365;52.208;5.488;2022-10-04T16:37:40;22.70;84.20
25440;DHT22;13365;52.208;5.488;2022-10-04T16:43:10;22.80;83.90
25440;DHT22;13365;52.208;5.488;2022-10-04T16:46:02;22.80;83.60
25440;DHT22;13365;52.208;5.488;2022-10-04T16:56:28;22.70;84.50
25440;DHT22;13365;52.208;5.488;2022-10-04T17:15:47;22.40;85.60
25440;DHT22;13365;52.208;5.488;2022-10-04T17:18:25;22.40;85.30
25440;DHT22;13365;52.208;5.488;2022-10-04T17:21:02;22.30;85.70
25440;DHT22;13365;52.208;5.488;2022-10-04T17:26:41;22.20;86.40
25440;DHT22;13365;52.208;5.488;2022-10-04T17:31:56;22.10;87.00
25440;DHT22;13365;52.208;5.488;2022-10-04T17:37:40;22.00;86.80
25440;DHT22;13365;52.208;5.488;2022-10-04T17:40:18;22.00;87.40
25440;DHT22;13365;52.208;5.488;2022-10-04T17:42:54;21.80;87.60
25440;DHT22;13365;52.208;5.488;2022-10-04T17:45:28;21.90;87.60
25440;DHT22;13365;52.208;5.488;2022-10-04T17:48:06;21.90;87.90
25440;DHT22;13365;52.208;5.488;2022-10-04T17:51:40;21.90;88.10
25440;DHT22;13365;52.208;5.488;2022-10-04T17:59:38;21.90;88.20
25440;DHT22;13365;52.208;5.488;2022-10-04T18:04:50;21.90;88.20
25440;DHT22;13365;52.208;5.488;2022-10-04T18:07:37;21.90;88.40
25440;DHT22;13365;52.208;5.488;2022-10-04T18:10:47;21.90;88.50
25440;DHT22;13365;52.208;5.488;2022-10-04T18:16:00;21.70;89.10
25440;DHT22;13365;52.208;5.488;2022-10-04T18:18:29;21.60;89.00
25440;DHT22;13365;52.208;5.488;2022-10-04T18:21:05;21.80;89.30
25440;DHT22;13365;52.208;5.488;2022-10-04T18:23:37;21.90;88.80
25440;DHT22;13365;52.208;5.488;2022-10-04T18:26:16;22.00;88.60
25440;DHT22;13365;52.208;5.488;2022-10-04T18:28:43;22.00;88.50
25440;DHT22;13365;52.208;5.488;2022-10-04T18:31:35;21.90;88.70
25440;DHT22;13365;52.208;5.488;2022-10-04T18:34:02;21.90;88.80
25440;DHT22;13365;52.208;5.488;2022-10-04T18:39:20;22.00;88.70
25440;DHT22;13365;52.208;5.488;2022-10-04T18:42:18;22.00;88.70
25440;DHT22;13365;52.208;5.488;2022-10-04T18:44:57;22.00;88.80
25440;DHT22;13365;52.208;5.488;2022-10-04T18:47:37;22.00;88.60
25440;DHT22;13365;52.208;5.488;2022-10-04T18:50:23;22.00;88.60
25440;DHT22;13365;52.208;5.488;2022-10-04T19:02:21;21.90;89.60
25440;DHT22;13365;52.208;5.488;2022-10-04T19:07:16;21.70;89.80
25440;DHT22;13365;52.208;5.488;2022-10-04T19:10:03;21.60;90.10
25440;DHT22;13365;52.208;5.488;2022-10-04T19:12:47;21.60;90.00
25440;DHT22;13365;52.208;5.488;2022-10-04T19:18:21;21.60;90.00
25440;DHT22;13365;52.208;5.488;2022-10-04T19:21:10;21.60;90.10
25440;DHT22;13365;52.208;5.488;2022-10-04T19:23:59;21.60;90.10
25440;DHT22;13365;52.208;5.488;2022-10-04T19:26:46;21.60;90.10
25440;DHT22;13365;52.208;5.488;2022-10-04T19:29:29;21.60;90.20
25440;DHT22;13365;52.208;5.488;2022-10-04T19:32:13;21.70;90.10
25440;DHT22;13365;52.208;5.488;2022-10-04T19:34:54;21.60;90.10
25440;DHT22;13365;52.208;5.488;2022-10-04T19:40:21;21.60;90.20
25440;DHT22;13365;52.208;5.488;2022-10-04T19:43:08;21.70;90.20
25440;DHT22;13365;52.208;5.488;2022-10-04T19:46:02;21.70;90.00
25440;DHT22;13365;52.208;5.488;2022-10-04T19:48:37;21.60;90.20
25440;DHT22;13365;52.208;5.488;2022-10-04T19:51:13;21.50;90.30
25440;DHT22;13365;52.208;5.488;2022-10-04T19:53:42;21.50;90.30
25440;DHT22;13365;52.208;5.488;2022-10-04T19:56:21;21.40;90.40
25440;DHT22;13365;52.208;5.488;2022-10-04T20:01:26;21.40;90.60
25440;DHT22;13365;52.208;5.488;2022-10-04T20:03:53;21.40;90.40
25440;DHT22;13365;52.208;5.488;2022-10-04T20:06:46;21.40;90.50
25440;DHT22;13365;52.208;5.488;2022-10-04T20:09:32;21.40;90.60
25440;DHT22;13365;52.208;5.488;2022-10-04T20:12:35;21.30;90.50
25440;DHT22;13365;52.208;5.488;2022-10-04T20:15:20;21.40;90.60
25440;DHT22;13365;52.208;5.488;2022-10-04T20:26:09;21.30;90.70
25440;DHT22;13365;52.208;5.488;2022-10-04T20:28:38;21.30;90.60
25440;DHT22;13365;52.208;5.488;2022-10-04T20:31:10;21.20;90.60
25440;DHT22;13365;52.208;5.488;2022-10-04T20:44:55;21.40;90.40
25440;DHT22;13365;52.208;5.488;2022-10-04T20:47:34;21.40;90.60
25440;DHT22;13365;52.208;5.488;2022-10-04T20:50:05;21.40;90.60
25440;DHT22;13365;52.208;5.488;2022-10-04T20:52:33;21.30;90.40
25440;DHT22;13365;52.208;5.488;2022-10-04T20:54:59;21.20;90.80
25440;DHT22;13365;52.208;5.488;2022-10-04T20:57:30;21.10;90.90
25440;DHT22;13365;52.208;5.488;2022-10-04T20:59:57;21.10;91.00
25440;DHT22;13365;52.208;5.488;2022-10-04T21:02:24;21.00;91.00
25440;DHT22;13365;52.208;5.488;2022-10-04T21:04:52;21.10;90.90
25440;DHT22;13365;52.208;5.488;2022-10-04T21:07:23;21.00;91.10
25440;DHT22;13365;52.208;5.488;2022-10-04T21:09:50;21.00;91.00
25440;DHT22;13365;52.208;5.488;2022-10-04T21:12:36;21.00;91.10
25440;DHT22;13365;52.208;5.488;2022-10-04T21:17:41;21.10;90.90
25440;DHT22;13365;52.208;5.488;2022-10-04T21:20:15;21.10;91.00
25440;DHT22;13365;52.208;5.488;2022-10-04T21:23:28;21.00;91.30
25440;DHT22;13365;52.208;5.488;2022-10-04T21:26:20;21.10;91.20
25440;DHT22;13365;52.208;5.488;2022-10-04T21:28:51;20.90;91.20
25440;DHT22;13365;52.208;5.488;2022-10-04T21:31:17;20.80;91.40
25440;DHT22;13365;52.208;5.488;2022-10-04T21:33:43;20.80;91.60
25440;DHT22;13365;52.208;5.488;2022-10-04T21:36:08;20.70;91.50
25440;DHT22;13365;52.208;5.488;2022-10-04T21:38:34;20.70;91.70
25440;DHT22;13365;52.208;5.488;2022-10-04T21:41:00;20.80;91.60
25440;DHT22;13365;52.208;5.488;2022-10-04T21:43:25;20.80;91.50
25440;DHT22;13365;52.208;5.488;2022-10-04T21:45:51;20.90;91.60
25440;DHT22;13365;52.208;5.488;2022-10-04T21:48:17;21.00;91.40
25440;DHT22;13365;52.208;5.488;2022-10-04T21:50:46;20.90;91.30
25440;DHT22;13365;52.208;5.488;2022-10-04T21:53:11;20.90;91.40
25440;DHT22;13365;52.208;5.488;2022-10-04T21:55:38;20.70;91.50
25440;DHT22;13365;52.208;5.488;2022-10-04T21:58:03;20.80;91.50
25440;DHT22;13365;52.208;5.488;2022-10-04T22:00:29;20.60;91.70
25440;DHT22;13365;52.208;5.488;2022-10-04T22:02:54;20.50;91.90
25440;DHT22;13365;52.208;5.488;2022-10-04T22:05:20;20.50;92.10
25440;DHT22;13365;52.208;5.488;2022-10-04T22:07:45;20.60;91.80
25440;DHT22;13365;52.208;5.488;2022-10-04T22:10:11;20.50;91.70
25440;DHT22;13365;52.208;5.488;2022-10-04T22:12:36;20.60;91.80
25440;DHT22;13365;52.208;5.488;2022-10-04T22:15:03;20.70;92.10
25440;DHT22;13365;52.208;5.488;2022-10-04T22:17:29;20.80;91.60
25440;DHT22;13365;52.208;5.488;2022-10-04T22:19:54;20.90;91.60
25440;DHT22;13365;52.208;5.488;2022-10-04T22:22:20;20.90;91.30
25440;DHT22;13365;52.208;5.488;2022-10-04T22:24:45;20.90;91.40
25440;DHT22;13365;52.208;5.488;2022-10-04T22:27:15;21.00;91.40
25440;DHT22;13365;52.208;5.488;2022-10-04T22:29:42;21.10;91.30
25440;DHT22;13365;52.208;5.488;2022-10-04T22:32:25;21.20;91.10
25440;DHT22;13365;52.208;5.488;2022-10-04T22:34:57;21.30;91.00
25440;DHT22;13365;52.208;5.488;2022-10-04T22:37:24;21.40;90.80
25440;DHT22;13365;52.208;5.488;2022-10-04T22:39:54;21.20;91.00
25440;DHT22;13365;52.208;5.488;2022-10-04T22:42:21;21.30;91.00
25440;DHT22;13365;52.208;5.488;2022-10-04T22:44:49;21.30;90.80
25440;DHT22;13365;52.208;5.488;2022-10-04T22:47:14;21.40;90.90
25440;DHT22;13365;52.208;5.488;2022-10-04T22:49:45;21.30;90.70
25440;DHT22;13365;52.208;5.488;2022-10-04T22:52:23;21.00;91.00
25440;DHT22;13365;52.208;5.488;2022-10-04T22:54:51;21.10;91.30
25440;DHT22;13365;52.208;5.488;2022-10-04T22:57:18;21.00;91.10
25440;DHT22;13365;52.208;5.488;2022-10-04T22:59:49;20.90;91.50
25440;DHT22;13365;52.208;5.488;2022-10-04T23:02:23;20.90;91.40
25440;DHT22;13365;52.208;5.488;2022-10-04T23:04:57;20.80;91.60
25440;DHT22;13365;52.208;5.488;2022-10-04T23:07:25;20.80;91.70
25440;DHT22;13365;52.208;5.488;2022-10-04T23:09:50;20.70;91.80
25440;DHT22;13365;52.208;5.488;2022-10-04T23:12:16;20.80;91.70
25440;DHT22;13365;52.208;5.488;2022-10-04T23:14:42;20.80;91.70
25440;DHT22;13365;52.208;5.488;2022-10-04T23:17:24;20.70;91.80
25440;DHT22;13365;52.208;5.488;2022-10-04T23:20:13;20.80;91.70
25440;DHT22;13365;52.208;5.488;2022-10-04T23:22:43;20.80;91.80
25440;DHT22;13365;52.208;5.488;2022-10-04T23:25:29;20.70;91.80
25440;DHT22;13365;52.208;5.488;2022-10-04T23:28:00;20.90;91.80
25440;DHT22;13365;52.208;5.488;2022-10-04T23:30:27;20.80;91.60
25440;DHT22;13365;52.208;5.488;2022-10-04T23:32:56;20.80;91.70
25440;DHT22;13365;52.208;5.488;2022-10-04T23:35:24;20.90;91.80
25440;DHT22;13365;52.208;5.488;2022-10-04T23:37:51;20.90;91.60
25440;DHT22;13365;52.208;5.488;2022-10-04T23:40:19;21.00;91.60
25440;DHT22;13365;52.208;5.488;2022-10-04T23:42:48;21.00;91.50
25440;DHT22;13365;52.208;5.488;2022-10-04T23:45:21;20.80;91.60
25440;DHT22;13365;52.208;5.488;2022-10-04T23:47:51;20.60;91.90
25440;DHT22;13365;52.208;5.488;2022-10-04T23:50:33;20.70;92.00
25440;DHT22;13365;52.208;5.488;2022-10-04T23:53:02;20.60;92.20
25440;DHT22;13365;52.208;5.488;2022-10-04T23:55:42;20.70;92.00
25440;DHT22;13365;52.208;5.488;2022-10-04T23:58:13;20.70;92.00
